sensor_id;sensor_type;location;lat;lon;timestamp;pressure;altitude;pressure_sealevel;temperature;humidity
3960;BME280;1994;48.640;8.894;2023-11-21T00:01:02;95554.97;;;7.98;100.00
3960;BME280;1994;48.640;8.894;2023-11-21T00:03:30;95556.50;;;7.99;100.00
3960;BME280;1994;48.640;8.894;2023-11-21T00:05:56;95555.16;;;8.08;100.00
3960;BME280;1994;48.640;8.894;2023-11-21T00:08:22;95556.38;;;8.05;100.00
3960;BME280;1994;48.640;8.894;2023-11-21T00:10:47;95548.09;;;8.03;100.00
3960;BME280;1994;48.640;8.894;2023-11-21T00:13:14;95548.75;;;8.10;100.00
3960;BME280;1994;48.640;8.894;2023-11-21T00:15:39;95549.59;;;8.16;100.00
3960;BME280;1994;48.640;8.894;2023-11-21T00:18:06;95549.59;;;8.16;100.00
3960;BME280;1994;48.640;8.894;2023-11-21T00:20:32;95546.13;;;8.22;100.00
3960;BME280;1994;48.640;8.894;2023-11-21T00:22:58;95539.41;;;8.21;100.00
3960;BME280;1994;48.640;8.894;2023-11-21T00:25:25;95545.13;;;8.23;100.00
3960;BME280;1994;48.640;8.894;2023-11-21T00:27:50;95541.63;;;8.29;100.00
3960;BME280;1994;48.640;8.894;2023-11-21T00:30:16;95540.69;;;8.35;100.00
3960;BME280;1994;48.640;8.894;2023-11-21T00:32:42;95543.56;;;8.38;100.00
3960;BME280;1994;48.640;8.894;2023-11-21T00:35:08;95545.84;;;8.35;100.00
3960;BME280;1994;48.640;8.894;2023-11-21T00:37:34;95544.81;;;8.36;100.00
3960;BME280;1994;48.640;8.894;2023-11-21T00:40:01;95544.28;;;8.34;100.00
3960;BME280;1994;48.640;8.894;2023-11-21T00:42:30;95542.25;;;8.36;100.00
3960;BME280;1994;48.640;8.894;2023-11-21T00:44:58;95547.72;;;8.39;100.00
3960;BME280;1994;48.640;8.894;2023-11-21T00:47:24;95544.19;;;8.45;100.00
3960;BME280;1994;48.640;8.894;2023-11-21T00:49:50;95543.81;;;8.37;100.00
3960;BME280;1994;48.640;8.894;2023-11-21T00:52:16;95556.63;;;8.32;100.00
3960;BME280;1994;48.640;8.894;2023-11-21T00:54:41;95548.78;;;8.27;100.00
3960;BME280;1994;48.640;8.894;2023-11-21T00:57:08;95548.66;;;8.33;100.00
3960;BME280;1994;48.640;8.894;2023-11-21T00:59:34;95553.19;;;8.26;100.00
3960;BME280;1994;48.640;8.894;2023-11-21T01:02:00;95551.44;;;8.32;100.00
3960;BME280;1994;48.640;8.894;2023-11-21T01:04:27;95547.22;;;8.26;100.00
3960;BME280;1994;48.640;8.894;2023-11-21T01:06:53;95544.09;;;8.24;100.00
3960;BME280;1994;48.640;8.894;2023-11-21T01:09:19;95542.53;;;8.23;100.00
3960;BME280;1994;48.640;8.894;2023-11-21T01:11:44;95543.41;;;8.17;100.00
3960;BME280;1994;48.640;8.894;2023-11-21T01:14:10;95544.44;;;8.16;100.00
3960;BME280;1994;48.640;8.894;2023-11-21T01:16:36;95539.72;;;8.24;100.00
3960;BME280;1994;48.640;8.894;2023-11-21T01:19:02;95547.72;;;8.23;100.00
3960;BME280;1994;48.640;8.894;2023-11-21T01:21:28;95541.41;;;8.19;100.00
3960;BME280;1994;48.640;8.894;2023-11-21T01:23:54;95550.81;;;8.25;100.00
3960;BME280;1994;48.640;8.894;2023-11-21T01:26:20;95547.22;;;8.26;100.00
3960;BME280;1994;48.640;8.894;2023-11-21T01:28:46;95560.03;;;8.21;100.00
3960;BME280;1994;48.640;8.894;2023-11-21T01:31:17;95543.53;;;8.22;100.00
3960;BME280;1994;48.640;8.894;2023-11-21T01:33:44;95547.03;;;8.16;100.00
3960;BME280;1994;48.640;8.894;2023-11-21T01:36:10;95537.63;;;8.10;100.00
3960;BME280;1994;48.640;8.894;2023-11-21T01:38:35;95535.63;;;8.12;100.00
3960;BME280;1994;48.640;8.894;2023-11-21T01:41:01;95531.34;;;8.06;100.00
3960;BME280;1994;48.640;8.894;2023-11-21T01:43:28;95531.34;;;8.06;100.00
3960;BME280;1994;48.640;8.894;2023-11-21T01:45:55;95535.97;;;8.04;100.00
3960;BME280;1994;48.640;8.894;2023-11-21T01:48:25;95544.00;;;7.91;100.00
3960;BME280;1994;48.640;8.894;2023-11-21T01:50:51;95533.69;;;7.91;100.00
3960;BME280;1994;48.640;8.894;2023-11-21T01:53:17;95533.22;;;7.94;100.00
3960;BME280;1994;48.640;8.894;2023-11-21T01:55:45;95530.84;;;7.92;100.00
3960;BME280;1994;48.640;8.894;2023-11-21T01:58:12;95529.63;;;7.95;100.00
3960;BME280;1994;48.640;8.894;2023-11-21T02:00:42;95537.59;;;7.93;100.00
3960;BME280;1994;48.640;8.894;2023-11-21T02:03:09;95530.63;;;7.94;100.00
3960;BME280;1994;48.640;8.894;2023-11-21T02:05:35;95533.78;;;7.96;100.00
3960;BME280;1994;48.640;8.894;2023-11-21T02:08:02;95536.38;;;7.96;100.00
3960;BME280;1994;48.640;8.894;2023-11-21T02:10:30;95537.28;;;7.90;100.00
3960;BME280;1994;48.640;8.894;2023-11-21T02:12:56;95538.38;;;7.94;100.00
3960;BME280;1994;48.640;8.894;2023-11-21T02:15:23;95539.03;;;8.01;100.00
3960;BME280;1994;48.640;8.894;2023-11-21T02:17:52;95534.13;;;7.88;100.00
3960;BME280;1994;48.640;8.894;2023-11-21T02:20:20;95538.84;;;7.91;100.00
3960;BME280;1994;48.640;8.894;2023-11-21T02:22:56;95535.84;;;7.82;100.00
3960;BME280;1994;48.640;8.894;2023-11-21T02:25:32;95537.28;;;7.90;100.00
3960;BME280;1994;48.640;8.894;2023-11-21T02:28:03;95536.38;;;7.96;100.00
3960;BME280;1994;48.640;8.894;2023-11-21T02:30:29;95534.78;;;7.95;100.00
3960;BME280;1994;48.640;8.894;2023-11-21T02:32:59;95539.25;;;7.99;100.00
3960;BME280;1994;48.640;8.894;2023-11-21T02:35:25;95532.13;;;7.90;100.00
3960;BME280;1994;48.640;8.894;2023-11-21T02:37:52;95530.09;;;7.92;100.00
3960;BME280;1994;48.640;8.894;2023-11-21T02:40:18;95527.50;;;7.92;100.00
3960;BME280;1994;48.640;8.894;2023-11-21T02:42:49;95529.47;;;7.85;100.00
3960;BME280;1994;48.640;8.894;2023-11-21T02:45:20;95525.38;;;7.89;100.00
3960;BME280;1994;48.640;8.894;2023-11-21T02:47:47;95531.66;;;7.93;100.00
3960;BME280;1994;48.640;8.894;2023-11-21T02:50:13;95526.97;;;7.90;100.00
3960;BME280;1994;48.640;8.894;2023-11-21T02:52:39;95521.72;;;7.85;100.00
3960;BME280;1994;48.640;8.894;2023-11-21T02:55:06;95525.69;;;7.76;100.00
3960;BME280;1994;48.640;8.894;2023-11-21T02:57:35;95518.16;;;7.74;100.00
3960;BME280;1994;48.640;8.894;2023-11-21T03:00:01;95518.47;;;7.78;100.00
3960;BME280;1994;48.640;8.894;2023-11-21T03:02:26;95528.56;;;7.79;100.00
3960;BME280;1994;48.640;8.894;2023-11-21T03:04:52;95516.16;;;7.76;100.00
3960;BME280;1994;48.640;8.894;2023-11-21T03:07:18;95522.41;;;7.80;100.00
3960;BME280;1994;48.640;8.894;2023-11-21T03:09:47;95519.16;;;7.85;100.00
3960;BME280;1994;48.640;8.894;2023-11-21T03:12:13;95520.84;;;7.79;100.00
3960;BME280;1994;48.640;8.894;2023-11-21T03:14:40;95516.91;;;7.77;100.00
3960;BME280;1994;48.640;8.894;2023-11-21T03:17:06;95509.41;;;7.75;100.00
3960;BME280;1994;48.640;8.894;2023-11-21T03:19:32;95515.25;;;7.71;100.00
3960;BME280;1994;48.640;8.894;2023-11-21T03:21:58;95513.16;;;7.68;100.00
3960;BME280;1994;48.640;8.894;2023-11-21T03:24:24;95513.28;;;7.61;100.00
3960;BME280;1994;48.640;8.894;2023-11-21T03:26:50;95513.16;;;7.68;100.00
3960;BME280;1994;48.640;8.894;2023-11-21T03:29:16;95521.63;;;7.80;100.00
3960;BME280;1994;48.640;8.894;2023-11-21T03:31:42;95523.63;;;7.78;100.00
3960;BME280;1994;48.640;8.894;2023-11-21T03:34:23;95520.53;;;7.76;100.00
3960;BME280;1994;48.640;8.894;2023-11-21T03:36:49;95520.06;;;7.79;100.00
3960;BME280;1994;48.640;8.894;2023-11-21T03:39:15;95524.22;;;7.80;100.00
3960;BME280;1994;48.640;8.894;2023-11-21T03:41:41;95522.41;;;7.80;100.00
3960;BME280;1994;48.640;8.894;2023-11-21T03:44:07;95524.22;;;7.80;100.00
3960;BME280;1994;48.640;8.894;2023-11-21T03:46:32;95525.13;;;7.74;100.00
3960;BME280;1994;48.640;8.894;2023-11-21T03:48:58;95524.56;;;7.72;100.00
3960;BME280;1994;48.640;8.894;2023-11-21T03:51:24;95528.69;;;7.73;100.00
3960;BME280;1994;48.640;8.894;2023-11-21T03:53:50;95534.97;;;7.77;100.00
3960;BME280;1994;48.640;8.894;2023-11-21T03:56:15;95531.47;;;7.83;100.00
3960;BME280;1994;48.640;8.894;2023-11-21T03:58:41;95535.97;;;7.76;100.00
3960;BME280;1994;48.640;8.894;2023-11-21T04:01:07;95535.59;;;7.84;100.00
3960;BME280;1994;48.640;8.894;2023-11-21T04:03:33;95541.47;;;7.79;100.00
3960;BME280;1994;48.640;8.894;2023-11-21T04:05:59;95535.06;;;7.82;100.00
3960;BME280;1994;48.640;8.894;2023-11-21T04:08:26;95542.25;;;7.80;100.00
3960;BME280;1994;48.640;8.894;2023-11-21T04:10:52;95542.00;;;7.81;100.00
3960;BME280;1994;48.640;8.894;2023-11-21T04:13:19;95548.06;;;7.87;100.00
3960;BME280;1994;48.640;8.894;2023-11-21T04:15:45;95541.78;;;7.83;100.00
3960;BME280;1994;48.640;8.894;2023-11-21T04:18:10;95544.25;;;7.78;100.00
3960;BME280;1994;48.640;8.894;2023-11-21T04:20:36;95543.03;;;7.80;100.00
3960;BME280;1994;48.640;8.894;2023-11-21T04:23:02;95541.34;;;7.86;100.00
3960;BME280;1994;48.640;8.894;2023-11-21T04:25:28;95543.53;;;7.94;100.00
3960;BME280;1994;48.640;8.894;2023-11-21T04:27:54;95535.88;;;7.99;100.00
3960;BME280;1994;48.640;8.894;2023-11-21T04:30:20;95539.03;;;8.01;100.00
3960;BME280;1994;48.640;8.894;2023-11-21T04:32:46;95543.53;;;7.94;100.00
3960;BME280;1994;48.640;8.894;2023-11-21T04:35:12;95544.97;;;8.01;100.00
3960;BME280;1994;48.640;8.894;2023-11-21T04:37:38;95548.97;;;8.09;100.00
3960;BME280;1994;48.640;8.894;2023-11-21T04:40:04;95554.44;;;8.24;100.00
3960;BME280;1994;48.640;8.894;2023-11-21T04:42:36;95549.06;;;8.14;100.00
3960;BME280;1994;48.640;8.894;2023-11-21T04:45:05;95555.41;;;7.95;100.00
3960;BME280;1994;48.640;8.894;2023-11-21T04:47:34;95553.53;;;7.90;100.00
3960;BME280;1994;48.640;8.894;2023-11-21T04:50:00;95555.25;;;7.85;100.00
3960;BME280;1994;48.640;8.894;2023-11-21T04:52:26;95561.59;;;7.94;100.00
3960;BME280;1994;48.640;8.894;2023-11-21T04:54:51;95561.59;;;7.94;100.00
3960;BME280;1994;48.640;8.894;2023-11-21T04:57:20;95558.22;;;7.93;100.00
3960;BME280;1994;48.640;8.894;2023-11-21T04:59:49;95556.19;;;7.95;100.00
3960;BME280;1994;48.640;8.894;2023-11-21T05:02:15;95557.00;;;7.96;100.00
3960;BME280;1994;48.640;8.894;2023-11-21T05:04:41;95556.31;;;7.89;100.00
3960;BME280;1994;48.640;8.894;2023-11-21T05:07:08;95564.44;;;7.81;100.00
3960;BME280;1994;48.640;8.894;2023-11-21T05:09:34;95560.63;;;7.83;100.00
3960;BME280;1994;48.640;8.894;2023-11-21T05:12:01;95559.72;;;7.78;100.00
3960;BME280;1994;48.640;8.894;2023-11-21T05:14:27;95561.53;;;7.77;100.00
3960;BME280;1994;48.640;8.894;2023-11-21T05:16:53;95565.69;;;7.78;100.00
3960;BME280;1994;48.640;8.894;2023-11-21T05:19:19;95565.91;;;7.77;100.00
3960;BME280;1994;48.640;8.894;2023-11-21T05:21:45;95561.88;;;7.69;100.00
3960;BME280;1994;48.640;8.894;2023-11-21T05:24:11;95565.81;;;7.72;100.00
3960;BME280;1994;48.640;8.894;2023-11-21T05:26:37;95570.97;;;7.72;100.00
3960;BME280;1994;48.640;8.894;2023-11-21T05:29:04;95578.47;;;7.62;100.00
3960;BME280;1994;48.640;8.894;2023-11-21T05:31:30;95576.59;;;7.69;100.00
3960;BME280;1994;48.640;8.894;2023-11-21T05:33:56;95570.75;;;7.62;100.00
3960;BME280;1994;48.640;8.894;2023-11-21T05:36:21;95571.56;;;7.62;100.00
3960;BME280;1994;48.640;8.894;2023-11-21T05:38:47;95579.59;;;7.66;100.00
3960;BME280;1994;48.640;8.894;2023-11-21T05:41:13;95581.53;;;7.59;100.00
3960;BME280;1994;48.640;8.894;2023-11-21T05:43:39;95575.91;;;7.62;100.00
3960;BME280;1994;48.640;8.894;2023-11-21T05:46:06;95577.69;;;7.73;100.00
3960;BME280;1994;48.640;8.894;2023-11-21T05:48:33;95578.16;;;7.70;100.00
3960;BME280;1994;48.640;8.894;2023-11-21T05:50:59;95582.56;;;7.58;100.00
3960;BME280;1994;48.640;8.894;2023-11-21T05:53:30;95577.03;;;7.66;100.00
3960;BME280;1994;48.640;8.894;2023-11-21T05:55:56;95582.81;;;7.73;100.00
3960;BME280;1994;48.640;8.894;2023-11-21T05:58:22;95577.69;;;7.73;100.00
3960;BME280;1994;48.640;8.894;2023-11-21T06:00:48;95580.19;;;7.68;100.00
3960;BME280;1994;48.640;8.894;2023-11-21T06:03:14;95586.91;;;7.69;100.00
3960;BME280;1994;48.640;8.894;2023-11-21T06:05:40;95590.28;;;7.58;100.00
3960;BME280;1994;48.640;8.894;2023-11-21T06:08:05;95588.25;;;7.60;100.00
3960;BME280;1994;48.640;8.894;2023-11-21T06:10:33;95588.25;;;7.60;100.00
3960;BME280;1994;48.640;8.894;2023-11-21T06:12:59;95591.03;;;7.58;100.00
3960;BME280;1994;48.640;8.894;2023-11-21T06:15:25;95596.78;;;7.49;100.00
3960;BME280;1994;48.640;8.894;2023-11-21T06:17:51;95593.19;;;7.50;100.00
3960;BME280;1994;48.640;8.894;2023-11-21T06:20:18;95600.16;;;7.49;100.00
3960;BME280;1994;48.640;8.894;2023-11-21T06:22:46;95592.75;;;7.53;100.00
3960;BME280;1994;48.640;8.894;2023-11-21T06:25:13;95600.50;;;7.53;100.00
3960;BME280;1994;48.640;8.894;2023-11-21T06:27:42;95597.22;;;7.46;100.00
3960;BME280;1994;48.640;8.894;2023-11-21T06:30:09;95596.78;;;7.49;100.00
3960;BME280;1994;48.640;8.894;2023-11-21T06:32:38;95603.06;;;7.53;100.00
3960;BME280;1994;48.640;8.894;2023-11-21T06:35:06;95605.28;;;7.61;100.00
3960;BME280;1994;48.640;8.894;2023-11-21T06:37:32;95616.00;;;7.69;100.00
3960;BME280;1994;48.640;8.894;2023-11-21T06:39:59;95617.50;;;7.65;100.00
3960;BME280;1994;48.640;8.894;2023-11-21T06:42:26;95615.16;;;7.64;100.00
3960;BME280;1994;48.640;8.894;2023-11-21T06:44:52;95618.25;;;7.66;100.00
3960;BME280;1994;48.640;8.894;2023-11-21T06:47:20;95631.25;;;7.71;100.00
3960;BME280;1994;48.640;8.894;2023-11-21T06:49:46;95631.16;;;7.77;100.00
3960;BME280;1994;48.640;8.894;2023-11-21T06:52:15;95624.28;;;7.83;100.00
3960;BME280;1994;48.640;8.894;2023-11-21T06:54:41;95634.81;;;7.81;100.00
3960;BME280;1994;48.640;8.894;2023-11-21T06:57:06;95643.81;;;7.79;100.00
3960;BME280;1994;48.640;8.894;2023-11-21T06:59:33;95631.00;;;7.84;100.00
3960;BME280;1994;48.640;8.894;2023-11-21T07:01:59;95644.47;;;7.86;100.00
3960;BME280;1994;48.640;8.894;2023-11-21T07:04:25;95642.91;;;7.85;100.00
3960;BME280;1994;48.640;8.894;2023-11-21T07:06:54;95647.47;;;7.83;100.00
3960;BME280;1994;48.640;8.894;2023-11-21T07:09:20;95653.22;;;7.85;100.00
3960;BME280;1994;48.640;8.894;2023-11-21T07:11:52;95652.41;;;7.84;100.00
3960;BME280;1994;48.640;8.894;2023-11-21T07:14:18;95656.66;;;7.90;100.00
3960;BME280;1994;48.640;8.894;2023-11-21T07:16:46;95651.50;;;7.90;100.00
3960;BME280;1994;48.640;8.894;2023-11-21T07:19:12;95654.56;;;7.76;100.00
3960;BME280;1994;48.640;8.894;2023-11-21T07:21:39;95663.84;;;7.88;100.00
3960;BME280;1994;48.640;8.894;2023-11-21T07:24:06;95660.38;;;7.83;100.00
3960;BME280;1994;48.640;8.894;2023-11-21T07:26:34;95670.25;;;7.86;100.00
3960;BME280;1994;48.640;8.894;2023-11-21T07:29:01;95670.25;;;7.86;100.00
3960;BME280;1994;48.640;8.894;2023-11-21T07:31:29;95671.59;;;7.88;100.00
3960;BME280;1994;48.640;8.894;2023-11-21T07:33:55;95671.56;;;8.00;100.00
3960;BME280;1994;48.640;8.894;2023-11-21T07:36:23;95669.78;;;7.89;100.00
3960;BME280;1994;48.640;8.894;2023-11-21T07:38:50;95673.38;;;7.88;100.00
3960;BME280;1994;48.640;8.894;2023-11-21T07:41:17;95675.28;;;7.81;100.00
3960;BME280;1994;48.640;8.894;2023-11-21T07:43:44;95674.50;;;7.92;100.00
3960;BME280;1994;48.640;8.894;2023-11-21T07:46:11;95684.59;;;7.82;100.00
3960;BME280;1994;48.640;8.894;2023-11-21T07:48:41;95681.09;;;7.88;100.00
3960;BME280;1994;48.640;8.894;2023-11-21T07:51:08;95681.69;;;7.90;100.00
3960;BME280;1994;48.640;8.894;2023-11-21T07:53:36;95687.16;;;7.93;100.00
3960;BME280;1994;48.640;8.894;2023-11-21T07:56:07;95696.44;;;8.06;100.00
3960;BME280;1994;48.640;8.894;2023-11-21T07:58:35;95696.81;;;7.86;100.00
3960;BME280;1994;48.640;8.894;2023-11-21T08:01:02;95696.34;;;8.01;100.00
3960;BME280;1994;48.640;8.894;2023-11-21T08:03:28;95694.56;;;7.90;100.00
3960;BME280;1994;48.640;8.894;2023-11-21T08:05:58;95697.47;;;7.82;100.00
3960;BME280;1994;48.640;8.894;2023-11-21T08:08:25;95695.94;;;7.81;100.00
3960;BME280;1994;48.640;8.894;2023-11-21T08:10:52;95699.25;;;7.93;100.00
3960;BME280;1994;48.640;8.894;2023-11-21T08:13:28;95691.53;;;7.93;100.00
3960;BME280;1994;48.640;8.894;2023-11-21T08:15:57;95704.97;;;7.95;100.00
3960;BME280;1994;48.640;8.894;2023-11-21T08:18:27;95706.91;;;7.88;100.00
3960;BME280;1994;48.640;8.894;2023-11-21T08:20:54;95702.63;;;7.93;100.00
3960;BME280;1994;48.640;8.894;2023-11-21T08:23:22;95709.69;;;7.98;100.00
3960;BME280;1994;48.640;8.894;2023-11-21T08:25:52;95702.16;;;8.08;100.00
3960;BME280;1994;48.640;8.894;2023-11-21T08:28:18;95705.31;;;8.21;100.00
3960;BME280;1994;48.640;8.894;2023-11-21T08:30:45;95705.28;;;8.10;100.00
3960;BME280;1994;48.640;8.894;2023-11-21T08:33:10;95706.41;;;8.25;100.00
3960;BME280;1994;48.640;8.894;2023-11-21T08:35:37;95711.44;;;8.32;100.00
3960;BME280;1994;48.640;8.894;2023-11-21T08:38:04;95709.53;;;8.27;100.00
3960;BME280;1994;48.640;8.894;2023-11-21T08:40:30;95709.78;;;8.14;100.00
3960;BME280;1994;48.640;8.894;2023-11-21T08:42:56;95709.66;;;8.21;100.00
3960;BME280;1994;48.640;8.894;2023-11-21T08:45:25;95708.75;;;8.27;100.00
3960;BME280;1994;48.640;8.894;2023-11-21T08:47:51;95711.75;;;8.35;100.00
3960;BME280;1994;48.640;8.894;2023-11-21T08:50:18;95713.66;;;8.40;100.00
3960;BME280;1994;48.640;8.894;2023-11-21T08:52:46;95718.34;;;8.43;100.00
3960;BME280;1994;48.640;8.894;2023-11-21T08:55:11;95721.94;;;8.53;100.00
3960;BME280;1994;48.640;8.894;2023-11-21T08:57:43;95723.19;;;8.39;100.00
3960;BME280;1994;48.640;8.894;2023-11-21T09:00:10;95725.28;;;8.54;100.00
3960;BME280;1994;48.640;8.894;2023-11-21T09:02:41;95734.50;;;8.50;100.00
3960;BME280;1994;48.640;8.894;2023-11-21T09:05:11;95735.59;;;8.54;100.00
3960;BME280;1994;48.640;8.894;2023-11-21T09:07:39;95739.06;;;8.59;100.00
3960;BME280;1994;48.640;8.894;2023-11-21T09:10:07;95742.16;;;8.73;100.00
3960;BME280;1994;48.640;8.894;2023-11-21T09:12:35;95737.34;;;8.65;100.00
3960;BME280;1994;48.640;8.894;2023-11-21T09:15:04;95737.44;;;8.70;100.00
3960;BME280;1994;48.640;8.894;2023-11-21T09:17:32;95737.88;;;8.78;100.00
3960;BME280;1994;48.640;8.894;2023-11-21T09:19:58;95747.88;;;8.75;100.00
3960;BME280;1994;48.640;8.894;2023-11-21T09:22:24;95741.78;;;8.81;100.00
3960;BME280;1994;48.640;8.894;2023-11-21T09:24:53;95743.81;;;8.79;100.00
3960;BME280;1994;48.640;8.894;2023-11-21T09:27:19;95751.19;;;8.87;100.00
3960;BME280;1994;48.640;8.894;2023-11-21T09:29:50;95750.94;;;8.72;100.00
3960;BME280;1994;48.640;8.894;2023-11-21T09:32:19;95754.34;;;8.89;100.00
3960;BME280;1994;48.640;8.894;2023-11-21T09:34:48;95748.69;;;8.92;100.00
3960;BME280;1994;48.640;8.894;2023-11-21T09:37:14;95752.63;;;8.94;100.00
3960;BME280;1994;48.640;8.894;2023-11-21T09:39:40;95760.78;;;9.03;100.00
3960;BME280;1994;48.640;8.894;2023-11-21T09:42:17;95756.53;;;8.97;100.00
3960;BME280;1994;48.640;8.894;2023-11-21T09:44:58;95765.75;;;8.93;100.00
3960;BME280;1994;48.640;8.894;2023-11-21T09:47:27;95759.50;;;8.89;100.00
3960;BME280;1994;48.640;8.894;2023-11-21T09:49:54;95762.91;;;9.06;100.00
3960;BME280;1994;48.640;8.894;2023-11-21T09:52:27;95765.00;;;8.92;100.00
3960;BME280;1994;48.640;8.894;2023-11-21T09:54:55;95763.56;;;8.85;100.00
3960;BME280;1994;48.640;8.894;2023-11-21T09:57:25;95757.66;;;9.01;100.00
3960;BME280;1994;48.640;8.894;2023-11-21T09:59:53;95765.00;;;9.09;100.00
3960;BME280;1994;48.640;8.894;2023-11-21T10:02:28;95763.53;;;9.13;100.00
3960;BME280;1994;48.640;8.894;2023-11-21T10:05:00;95772.50;;;9.22;100.00
3960;BME280;1994;48.640;8.894;2023-11-21T10:07:26;95774.59;;;9.25;100.00
3960;BME280;1994;48.640;8.894;2023-11-21T10:09:55;95783.84;;;9.21;100.00
3960;BME280;1994;48.640;8.894;2023-11-21T10:12:21;95776.50;;;9.29;100.00
3960;BME280;1994;48.640;8.894;2023-11-21T10:14:49;95778.19;;;9.24;100.00
3960;BME280;1994;48.640;8.894;2023-11-21T10:17:17;95772.25;;;9.23;100.00
3960;BME280;1994;48.640;8.894;2023-11-21T10:19:47;95777.75;;;9.27;100.00
3960;BME280;1994;48.640;8.894;2023-11-21T10:22:15;95781.16;;;9.16;100.00
3960;BME280;1994;48.640;8.894;2023-11-21T10:24:42;95778.28;;;9.29;100.00
3960;BME280;1994;48.640;8.894;2023-11-21T10:27:09;95774.59;;;9.25;100.00
3960;BME280;1994;48.640;8.894;2023-11-21T10:29:35;95779.94;;;9.35;100.00
3960;BME280;1994;48.640;8.894;2023-11-21T10:32:04;95775.66;;;9.40;100.00
3960;BME280;1994;48.640;8.894;2023-11-21T10:34:31;95775.38;;;9.42;100.00
3960;BME280;1994;48.640;8.894;2023-11-21T10:36:57;95778.41;;;9.50;100.00
3960;BME280;1994;48.640;8.894;2023-11-21T10:39:24;95786.06;;;9.62;100.00
3960;BME280;1994;48.640;8.894;2023-11-21T10:41:55;95780.50;;;9.70;100.00
3960;BME280;1994;48.640;8.894;2023-11-21T10:44:21;95780.03;;;9.73;100.00
3960;BME280;1994;48.640;8.894;2023-11-21T10:46:51;95789.66;;;9.77;100.00
3960;BME280;1994;48.640;8.894;2023-11-21T10:49:18;95778.94;;;9.85;100.00
3960;BME280;1994;48.640;8.894;2023-11-21T10:51:45;95790.75;;;9.81;100.00
3960;BME280;1994;48.640;8.894;2023-11-21T10:54:11;95791.84;;;9.85;100.00
3960;BME280;1994;48.640;8.894;2023-11-21T10:56:41;95788.09;;;9.76;100.00
3960;BME280;1994;48.640;8.894;2023-11-21T10:59:13;95790.28;;;9.84;100.00
3960;BME280;1994;48.640;8.894;2023-11-21T11:01:44;95790.91;;;9.91;100.00
3960;BME280;1994;48.640;8.894;2023-11-21T11:04:12;95788.56;;;9.90;100.00
3960;BME280;1994;48.640;8.894;2023-11-21T11:07:02;95788.56;;;9.90;100.00
3960;BME280;1994;48.640;8.894;2023-11-21T11:09:31;95786.28;;;9.93;100.00
3960;BME280;1994;48.640;8.894;2023-11-21T11:12:02;95783.06;;;10.03;100.00
3960;BME280;1994;48.640;8.894;2023-11-21T11:14:28;95786.75;;;10.07;100.00
3960;BME280;1994;48.640;8.894;2023-11-21T11:16:55;95787.31;;;10.09;100.00
3960;BME280;1994;48.640;8.894;2023-11-21T11:19:21;95787.78;;;10.06;100.00
3960;BME280;1994;48.640;8.894;2023-11-21T11:22:37;95791.41;;;10.05;100.00
3960;BME280;1994;48.640;8.894;2023-11-21T11:33:27;95787.56;;;10.07;100.00
3960;BME280;1994;48.640;8.894;2023-11-21T11:36:31;95786.66;;;10.02;100.00
3960;BME280;1994;48.640;8.894;2023-11-21T11:39:00;95796.13;;;10.08;100.00
3960;BME280;1994;48.640;8.894;2023-11-21T11:41:31;95795.69;;;10.16;100.00
3960;BME280;1994;48.640;8.894;2023-11-21T11:44:00;95791.53;;;10.15;100.00
3960;BME280;1994;48.640;8.894;2023-11-21T11:46:44;95787.03;;;10.05;100.00
3960;BME280;1994;48.640;8.894;2023-11-21T11:52:47;95794.84;;;9.94;100.00
3960;BME280;1994;48.640;8.894;2023-11-21T11:55:15;95800.53;;;9.96;100.00
3960;BME280;1994;48.640;8.894;2023-11-21T11:57:47;95799.84;;;10.00;100.00
3960;BME280;1994;48.640;8.894;2023-11-21T12:03:01;95797.50;;;9.99;100.00
3960;BME280;1994;48.640;8.894;2023-11-21T12:05:32;95805.09;;;9.89;100.00
3960;BME280;1994;48.640;8.894;2023-11-21T12:08:03;95804.38;;;9.93;100.00
3960;BME280;1994;48.640;8.894;2023-11-21T12:10:32;95793.34;;;9.98;100.00
3960;BME280;1994;48.640;8.894;2023-11-21T12:13:01;95792.97;;;10.06;100.00
3960;BME280;1994;48.640;8.894;2023-11-21T12:15:28;95800.63;;;10.17;100.00
3960;BME280;1994;48.640;8.894;2023-11-21T12:17:57;95805.66;;;10.24;100.00
3960;BME280;1994;48.640;8.894;2023-11-21T12:20:27;95804.19;;;10.33;100.00
3960;BME280;1994;48.640;8.894;2023-11-21T12:22:56;95802.78;;;10.42;100.00
3960;BME280;1994;48.640;8.894;2023-11-21T12:25:29;95800.38;;;10.78;100.00
3960;BME280;1994;48.640;8.894;2023-11-21T12:27:59;95804.47;;;10.96;100.00
3960;BME280;1994;48.640;8.894;2023-11-21T12:30:27;95806.13;;;11.07;99.20
3960;BME280;1994;48.640;8.894;2023-11-21T12:32:57;95802.97;;;11.26;96.83
3960;BME280;1994;48.640;8.894;2023-11-21T12:35:31;95811.81;;;11.57;97.81
3960;BME280;1994;48.640;8.894;2023-11-21T12:38:05;95813.28;;;11.74;96.36
3960;BME280;1994;48.640;8.894;2023-11-21T12:40:31;95812.28;;;11.54;94.78
3960;BME280;1994;48.640;8.894;2023-11-21T12:42:58;95816.03;;;11.63;95.41
3960;BME280;1994;48.640;8.894;2023-11-21T12:45:26;95809.56;;;11.39;93.71
3960;BME280;1994;48.640;8.894;2023-11-21T12:47:58;95813.16;;;11.38;96.11
3960;BME280;1994;48.640;8.894;2023-11-21T12:50:27;95816.28;;;11.13;96.17
3960;BME280;1994;48.640;8.894;2023-11-21T12:53:11;95821.19;;;11.10;97.19
3960;BME280;1994;48.640;8.894;2023-11-21T12:55:44;95820.72;;;11.13;96.65
3960;BME280;1994;48.640;8.894;2023-11-21T12:58:17;95824.34;;;11.12;96.68
3960;BME280;1994;48.640;8.894;2023-11-21T13:00:49;95821.06;;;11.00;96.88
3960;BME280;1994;48.640;8.894;2023-11-21T13:03:16;95823.31;;;10.91;97.15
3960;BME280;1994;48.640;8.894;2023-11-21T13:05:47;95815.97;;;10.83;95.87
3960;BME280;1994;48.640;8.894;2023-11-21T13:08:17;95825.97;;;10.75;96.65
3960;BME280;1994;48.640;8.894;2023-11-21T13:10:53;95837.91;;;10.76;96.62
3960;BME280;1994;48.640;8.894;2023-11-21T13:13:21;95833.94;;;10.68;96.13
3960;BME280;1994;48.640;8.894;2023-11-21T13:15:57;95831.09;;;10.70;96.92
3960;BME280;1994;48.640;8.894;2023-11-21T13:18:27;95834.09;;;10.62;97.24
3960;BME280;1994;48.640;8.894;2023-11-21T13:20:55;95831.47;;;10.57;97.29
3960;BME280;1994;48.640;8.894;2023-11-21T13:23:21;95838.06;;;10.48;98.00
3960;BME280;1994;48.640;8.894;2023-11-21T13:25:48;95841.03;;;10.56;98.23
3960;BME280;1994;48.640;8.894;2023-11-21T13:28:15;95836.31;;;10.53;97.74
3960;BME280;1994;48.640;8.894;2023-11-21T13:30:41;95841.81;;;10.57;98.52
3960;BME280;1994;48.640;8.894;2023-11-21T13:33:08;95841.69;;;10.47;97.75
3960;BME280;1994;48.640;8.894;2023-11-21T13:35:36;95849.53;;;10.52;98.59
3960;BME280;1994;48.640;8.894;2023-11-21T13:38:15;95848.44;;;10.48;98.67
3960;BME280;1994;48.640;8.894;2023-11-21T13:40:49;95851.00;;;10.48;98.05